createdAt,value
2023-03-31T00:00:18.976Z,7.32
2023-03-31T00:02:49.089Z,7.00
2023-03-31T00:05:19.303Z,8.02
2023-03-31T00:07:49.208Z,9.23
2023-03-31T00:10:19.458Z,2.80
2023-03-31T00:12:51.953Z,5.80
2023-03-31T00:15:21.943Z,6.43
2023-03-31T00:17:51.891Z,9.95
2023-03-31T00:20:22.934Z,4.50
2023-03-31T00:22:54.694Z,5.93
2023-03-31T00:25:24.637Z,4.03
2023-03-31T00:27:57.113Z,7.13
2023-03-31T00:30:27.122Z,4.10
2023-03-31T00:32:57.087Z,5.25
2023-03-31T00:35:26.988Z,7.60
2023-03-31T00:37:58.203Z,5.60
2023-03-31T00:40:28.162Z,6.40
2023-03-31T00:43:00.818Z,4.63
2023-03-31T00:45:32.179Z,3.25
2023-03-31T00:48:10.344Z,5.63
2023-03-31T00:50:46.126Z,5.25
2023-03-31T00:53:20.716Z,7.82
2023-03-31T00:55:54.354Z,4.30
2023-03-31T00:58:29.352Z,5.53
2023-03-31T01:01:02.369Z,7.65
2023-03-31T01:03:34.541Z,7.63
2023-03-31T01:06:10.522Z,4.25
2023-03-31T01:08:42.849Z,6.32
2023-03-31T01:11:16.549Z,7.20
2023-03-31T01:13:51.911Z,8.02
2023-03-31T01:16:22.188Z,6.53
2023-03-31T01:18:52.640Z,7.88
2023-03-31T01:21:57.192Z,6.32
2023-03-31T01:25:01.804Z,4.57
2023-03-31T01:27:46.992Z,4.72
2023-03-31T01:30:45.341Z,4.45
2023-03-31T01:33:34.622Z,6.50
2023-03-31T01:36:46.785Z,6.22
2023-03-31T01:39:53.094Z,6.05
2023-03-31T01:42:30.522Z,5.63
2023-03-31T01:45:08.998Z,6.40
2023-03-31T01:47:46.185Z,4.82
2023-03-31T01:50:26.162Z,7.88
2023-03-31T01:53:00.974Z,4.72
2023-03-31T01:55:36.506Z,8.93
2023-03-31T01:58:13.782Z,10.18
2023-03-31T02:00:52.103Z,6.10
2023-03-31T02:03:29.470Z,8.95
2023-03-31T02:06:03.014Z,6.50
2023-03-31T02:08:36.872Z,6.07
2023-03-31T02:11:06.997Z,7.85
2023-03-31T02:13:44.648Z,7.53
2023-03-31T02:16:19.794Z,6.57
2023-03-31T02:18:53.067Z,5.53
2023-03-31T02:21:24.442Z,6.75
2023-03-31T02:23:54.861Z,2.38
2023-03-31T02:26:29.677Z,3.47
2023-03-31T02:29:02.153Z,6.50
2023-03-31T02:31:39.824Z,3.03
2023-03-31T02:34:09.754Z,2.92
2023-03-31T02:36:40.078Z,5.25
2023-03-31T02:39:13.518Z,5.70
2023-03-31T02:41:43.675Z,4.57
2023-03-31T02:44:16.209Z,7.00
2023-03-31T02:46:46.510Z,3.45
2023-03-31T02:49:17.312Z,5.00
2023-03-31T02:52:04.160Z,7.40
2023-03-31T02:54:54.058Z,4.78
2023-03-31T02:57:41.184Z,5.43
2023-03-31T03:00:22.526Z,3.63
2023-03-31T03:03:05.000Z,4.78
2023-03-31T03:05:46.005Z,6.55
2023-03-31T03:08:29.602Z,4.10
2023-03-31T03:11:11.295Z,6.30
2023-03-31T03:13:49.278Z,8.07
2023-03-31T03:16:24.760Z,10.38
2023-03-31T03:19:01.303Z,4.18
2023-03-31T03:21:32.225Z,7.18
2023-03-31T03:24:02.564Z,7.53
2023-03-31T03:26:35.408Z,5.88
2023-03-31T03:29:05.364Z,4.95
2023-03-31T03:31:37.862Z,6.38
2023-03-31T03:34:07.801Z,5.93
2023-03-31T03:36:37.657Z,4.75
2023-03-31T03:39:08.671Z,6.85
2023-03-31T03:41:38.770Z,4.22
2023-03-31T03:44:08.762Z,7.55
2023-03-31T03:46:41.567Z,6.10
2023-03-31T03:49:11.602Z,5.60
2023-03-31T03:51:41.435Z,10.23
2023-03-31T03:54:11.265Z,6.00
2023-03-31T03:56:41.839Z,6.80
2023-03-31T03:59:11.927Z,8.73
2023-03-31T04:01:44.424Z,6.47
2023-03-31T04:04:14.457Z,8.13
2023-03-31T04:06:44.312Z,8.15
2023-03-31T04:09:14.167Z,6.88
2023-03-31T04:11:44.396Z,3.50
2023-03-31T04:14:14.245Z,6.80
2023-03-31T04:16:46.869Z,3.97
2023-03-31T04:19:17.773Z,5.68
2023-03-31T04:21:50.829Z,5.80
2023-03-31T04:24:22.092Z,10.57
2023-03-31T04:26:51.986Z,6.93
2023-03-31T04:29:22.767Z,5.68
2023-03-31T04:31:58.893Z,6.43
2023-03-31T04:34:35.447Z,5.78
2023-03-31T04:37:06.452Z,6.93
2023-03-31T04:39:36.386Z,6.18
2023-03-31T04:42:06.518Z,7.70
2023-03-31T04:44:36.439Z,6.65
2023-03-31T04:47:08.844Z,6.22
2023-03-31T04:49:38.848Z,7.28
2023-03-31T04:52:08.746Z,8.35
2023-03-31T04:54:38.628Z,7.03
2023-03-31T04:57:08.579Z,7.80
2023-03-31T04:59:38.517Z,7.53
2023-03-31T05:02:11.109Z,8.40
2023-03-31T05:04:41.364Z,8.00
2023-03-31T05:07:11.242Z,7.93
2023-03-31T05:09:41.066Z,7.07
2023-03-31T05:12:11.106Z,7.70
2023-03-31T05:14:40.984Z,9.23
2023-03-31T05:17:13.408Z,9.52
2023-03-31T05:19:43.310Z,13.10
2023-03-31T05:22:13.291Z,7.32
2023-03-31T05:24:43.154Z,12.65
2023-03-31T05:27:13.458Z,9.20
2023-03-31T05:29:44.062Z,8.02
2023-03-31T05:32:16.860Z,14.27
2023-03-31T05:34:46.739Z,12.45
2023-03-31T05:37:16.601Z,11.85
2023-03-31T05:39:46.455Z,10.02
2023-03-31T05:42:16.368Z,17.33
2023-03-31T05:44:46.203Z,12.52
2023-03-31T05:47:18.646Z,11.30
2023-03-31T05:49:48.767Z,14.10
2023-03-31T05:52:18.665Z,16.75
2023-03-31T05:54:48.508Z,14.98
2023-03-31T05:57:18.583Z,13.43
2023-03-31T05:59:48.504Z,12.80
2023-03-31T06:02:20.991Z,11.25
2023-03-31T06:04:50.886Z,17.63
2023-03-31T06:07:22.338Z,14.52
2023-03-31T06:09:52.454Z,14.05
2023-03-31T06:12:22.296Z,12.65
2023-03-31T06:14:52.208Z,19.92
2023-03-31T06:17:24.743Z,13.82
2023-03-31T06:19:54.630Z,14.07
2023-03-31T06:22:24.500Z,13.25
2023-03-31T06:24:54.377Z,11.45
2023-03-31T06:27:24.282Z,12.15
2023-03-31T06:29:54.118Z,12.77
2023-03-31T06:32:27.182Z,13.75
2023-03-31T06:34:57.021Z,14.50
2023-03-31T06:37:26.937Z,9.95
2023-03-31T06:39:57.114Z,12.07
2023-03-31T06:42:26.982Z,17.20
2023-03-31T06:44:57.701Z,17.08
2023-03-31T06:47:30.242Z,16.50
2023-03-31T06:50:00.419Z,15.82
2023-03-31T06:52:30.289Z,13.82
2023-03-31T06:55:00.692Z,16.73
2023-03-31T06:57:33.430Z,13.13
2023-03-31T07:00:03.870Z,13.05
2023-03-31T07:02:37.399Z,19.17
2023-03-31T07:05:08.127Z,15.65
2023-03-31T07:07:38.184Z,16.70
2023-03-31T07:10:09.428Z,13.38
2023-03-31T07:12:39.323Z,13.70
2023-03-31T07:15:11.010Z,14.73
2023-03-31T07:17:43.612Z,14.30
2023-03-31T07:20:15.461Z,18.65
2023-03-31T07:22:45.799Z,16.13
2023-03-31T07:25:17.929Z,13.63
2023-03-31T07:27:47.941Z,11.95
2023-03-31T07:30:19.485Z,13.68
2023-03-31T07:32:54.741Z,10.10
2023-03-31T07:35:25.741Z,10.35
2023-03-31T07:37:55.609Z,11.55
2023-03-31T07:40:29.490Z,7.70
2023-03-31T07:42:59.631Z,4.88
2023-03-31T07:45:29.707Z,7.75
2023-03-31T07:48:02.543Z,5.55
2023-03-31T07:50:32.780Z,7.60
2023-03-31T07:53:02.662Z,6.63
2023-03-31T07:55:32.590Z,3.78
2023-03-31T07:58:02.700Z,5.30
2023-03-31T08:00:32.638Z,5.75
2023-03-31T08:03:05.102Z,7.78
2023-03-31T08:05:35.046Z,1.88
2023-03-31T08:08:04.982Z,3.75
2023-03-31T08:10:34.889Z,2.88
2023-03-31T08:13:04.730Z,3.22
2023-03-31T08:15:34.601Z,3.50
2023-03-31T08:18:07.714Z,5.00
2023-03-31T08:20:39.483Z,3.05
2023-03-31T08:23:11.622Z,2.08
2023-03-31T08:25:41.864Z,3.33
2023-03-31T08:28:14.217Z,2.10
2023-03-31T08:30:44.803Z,4.65
2023-03-31T08:33:19.113Z,2.13
2023-03-31T08:35:49.119Z,2.17
2023-03-31T08:38:19.054Z,5.15
2023-03-31T08:40:48.975Z,2.53
2023-03-31T08:43:28.040Z,4.43
2023-03-31T08:45:58.049Z,3.97
2023-03-31T08:48:32.431Z,2.65
2023-03-31T08:51:07.762Z,5.43
2023-03-31T08:53:43.893Z,3.60
2023-03-31T08:56:19.738Z,3.95
2023-03-31T08:58:51.548Z,3.90
2023-03-31T09:01:31.277Z,3.78
2023-03-31T09:04:20.718Z,6.07
2023-03-31T09:06:58.537Z,2.92
2023-03-31T09:09:38.825Z,4.22
2023-03-31T09:12:14.529Z,4.63
2023-03-31T09:14:47.008Z,4.78
2023-03-31T09:17:24.055Z,3.63
2023-03-31T09:20:01.486Z,5.18
2023-03-31T09:22:35.175Z,6.55
2023-03-31T09:25:10.158Z,3.70
2023-03-31T09:27:43.098Z,4.13
2023-03-31T09:30:18.714Z,4.95
2023-03-31T09:32:50.397Z,5.78
2023-03-31T09:35:25.592Z,6.43
2023-03-31T09:37:57.321Z,4.10
2023-03-31T09:40:28.832Z,4.07
2023-03-31T09:43:03.369Z,3.10
2023-03-31T09:45:34.157Z,9.18
2023-03-31T09:48:07.211Z,4.70
2023-03-31T09:50:45.010Z,4.95
2023-03-31T09:53:20.850Z,9.93
2023-03-31T09:55:57.075Z,4.10
2023-03-31T09:58:27.854Z,5.68
2023-03-31T10:01:04.049Z,5.43
2023-03-31T10:03:37.345Z,10.00
2023-03-31T10:06:17.354Z,6.57
2023-03-31T10:08:51.959Z,5.90
2023-03-31T10:11:22.097Z,5.43
2023-03-31T10:13:59.073Z,6.57
2023-03-31T10:16:34.542Z,6.32
2023-03-31T10:19:26.601Z,6.65
2023-03-31T10:22:03.764Z,6.38
2023-03-31T10:24:41.610Z,3.92
2023-03-31T10:27:23.182Z,7.07
2023-03-31T10:29:56.132Z,7.28
2023-03-31T10:32:29.308Z,4.47
2023-03-31T10:35:00.607Z,6.10
2023-03-31T10:37:34.275Z,7.55
2023-03-31T10:40:07.454Z,7.10
2023-03-31T10:42:37.761Z,4.57
2023-03-31T10:45:26.240Z,6.13
2023-03-31T10:48:02.434Z,5.40
2023-03-31T10:50:34.538Z,3.53
2023-03-31T10:53:09.902Z,8.55
2023-03-31T10:55:48.966Z,8.23
2023-03-31T10:58:34.646Z,5.47
2023-03-31T11:01:17.604Z,5.45
2023-03-31T11:04:14.910Z,5.65
2023-03-31T11:06:56.748Z,3.53
2023-03-31T11:09:50.696Z,4.43
2023-03-31T11:12:27.601Z,3.92
2023-03-31T11:15:08.489Z,7.20
2023-03-31T11:17:53.716Z,6.28
2023-03-31T11:20:31.067Z,5.45
2023-03-31T11:23:10.582Z,3.97
2023-03-31T11:25:53.030Z,2.97
2023-03-31T11:28:30.566Z,2.75
2023-03-31T11:31:11.464Z,8.32
2023-03-31T11:33:59.858Z,2.88
2023-03-31T11:37:05.129Z,4.20
2023-03-31T11:39:46.446Z,2.95
2023-03-31T11:42:22.655Z,1.45
2023-03-31T11:44:56.315Z,1.05
2023-03-31T11:47:30.666Z,2.60
2023-03-31T11:50:03.266Z,6.22
2023-03-31T11:52:36.777Z,1.25
2023-03-31T11:55:15.565Z,0.70
2023-03-31T11:57:53.294Z,3.67
2023-03-31T12:00:27.121Z,1.50
2023-03-31T12:03:02.526Z,0.93
2023-03-31T12:05:36.524Z,0.75
2023-03-31T12:08:13.841Z,3.35
2023-03-31T12:10:49.465Z,2.63
2023-03-31T12:13:41.961Z,3.22
2023-03-31T12:16:17.118Z,0.57
2023-03-31T12:18:59.733Z,2.13
2023-03-31T12:21:32.177Z,5.15
2023-03-31T12:24:02.071Z,1.48
2023-03-31T12:26:42.405Z,2.40
2023-03-31T12:29:26.039Z,1.38
2023-03-31T12:31:59.935Z,1.70
2023-03-31T12:34:33.041Z,2.15
2023-03-31T12:37:25.213Z,1.60
2023-03-31T12:40:08.158Z,4.65
2023-03-31T12:42:57.109Z,1.88
2023-03-31T12:45:32.047Z,2.63
2023-03-31T12:48:20.923Z,4.55
2023-03-31T12:51:03.611Z,4.13
2023-03-31T12:53:47.758Z,2.50
2023-03-31T12:56:17.709Z,4.82
2023-03-31T12:58:49.138Z,2.42
2023-03-31T13:01:23.095Z,5.40
2023-03-31T13:03:57.896Z,2.75
2023-03-31T13:06:56.363Z,4.13
2023-03-31T13:09:42.511Z,4.75
2023-03-31T13:12:17.960Z,6.57
2023-03-31T13:14:51.833Z,5.43
2023-03-31T13:17:31.558Z,7.13
2023-03-31T13:20:26.650Z,3.40
2023-03-31T13:23:04.123Z,2.90
2023-03-31T13:25:52.584Z,1.70
2023-03-31T13:28:34.409Z,2.88
2023-03-31T13:31:05.528Z,3.55
2023-03-31T13:33:47.187Z,3.00
2023-03-31T13:36:53.041Z,4.38
2023-03-31T13:39:53.068Z,2.80
2023-03-31T13:42:39.373Z,3.08
2023-03-31T13:45:26.806Z,3.63
2023-03-31T13:48:06.545Z,2.58
2023-03-31T13:50:48.690Z,2.88
2023-03-31T13:53:35.252Z,0.85
2023-03-31T13:56:19.318Z,1.75
2023-03-31T13:59:16.327Z,1.70
2023-03-31T14:02:15.179Z,4.43
2023-03-31T14:05:19.442Z,1.05
2023-03-31T14:07:57.236Z,1.20
2023-03-31T14:10:30.757Z,2.40
2023-03-31T14:13:15.306Z,0.67
2023-03-31T14:15:51.888Z,2.13
2023-03-31T14:18:26.483Z,1.13
2023-03-31T14:21:14.136Z,2.67
2023-03-31T14:23:58.767Z,2.90
2023-03-31T14:26:50.198Z,1.10
2023-03-31T14:29:26.738Z,2.28
2023-03-31T14:32:05.338Z,5.47
2023-03-31T14:34:52.596Z,2.30
2023-03-31T14:37:23.872Z,3.38
2023-03-31T14:39:58.411Z,1.80
2023-03-31T14:42:30.727Z,2.13
2023-03-31T14:45:05.112Z,0.98
2023-03-31T14:50:09.186Z,0.80
2023-03-31T14:55:17.273Z,2.63
2023-03-31T14:57:48.973Z,2.00
2023-03-31T15:00:23.345Z,1.40
2023-03-31T15:02:53.325Z,1.45
2023-03-31T15:05:31.038Z,2.75
2023-03-31T15:08:01.693Z,2.50
2023-03-31T15:10:40.139Z,1.50
2023-03-31T15:13:14.954Z,0.98
2023-03-31T15:15:46.297Z,4.43
2023-03-31T15:18:18.010Z,1.95
2023-03-31T15:20:48.869Z,1.00
2023-03-31T15:23:25.055Z,0.57
2023-03-31T15:26:02.051Z,1.50
2023-03-31T15:28:36.569Z,2.22
2023-03-31T15:33:42.809Z,1.83
2023-03-31T15:36:14.742Z,1.25
2023-03-31T15:38:45.555Z,2.35
2023-03-31T15:41:21.373Z,3.15
2023-03-31T15:43:53.459Z,5.82
2023-03-31T15:46:28.547Z,1.35
2023-03-31T15:48:59.255Z,1.95
2023-03-31T15:51:33.829Z,3.25
2023-03-31T15:54:03.806Z,2.10
2023-03-31T15:56:40.611Z,3.72
2023-03-31T15:59:27.639Z,3.15
2023-03-31T16:02:05.955Z,3.67
2023-03-31T16:04:37.296Z,2.45
2023-03-31T16:07:09.905Z,2.25
2023-03-31T16:09:46.530Z,3.17
2023-03-31T16:12:23.781Z,4.18
2023-03-31T16:14:58.343Z,4.38
2023-03-31T16:17:33.866Z,1.73
2023-03-31T16:20:08.942Z,3.97
2023-03-31T16:22:43.103Z,3.08
2023-03-31T16:25:15.811Z,3.13
2023-03-31T16:27:51.214Z,2.78
2023-03-31T16:30:24.633Z,3.50
2023-03-31T16:33:02.807Z,2.47
2023-03-31T16:35:35.057Z,2.13
2023-03-31T16:38:05.160Z,1.00
2023-03-31T16:40:40.672Z,3.95
2023-03-31T16:43:17.875Z,2.17
2023-03-31T16:45:50.010Z,2.70
2023-03-31T16:48:21.043Z,1.35
2023-03-31T16:50:53.064Z,3.15
2023-03-31T16:53:25.128Z,0.80
2023-03-31T16:55:55.678Z,3.47
2023-03-31T16:58:29.669Z,1.20
2023-03-31T17:01:00.374Z,2.28
2023-03-31T17:03:32.557Z,1.90
2023-03-31T17:06:08.587Z,3.22
2023-03-31T17:08:39.829Z,2.45
2023-03-31T17:11:12.769Z,1.67
2023-03-31T17:13:46.609Z,2.00
2023-03-31T17:16:24.214Z,1.83
2023-03-31T17:18:59.171Z,4.53
2023-03-31T17:21:29.055Z,3.10
2023-03-31T17:24:01.538Z,5.60
2023-03-31T17:26:32.586Z,1.70
2023-03-31T17:29:05.122Z,3.50
2023-03-31T17:31:35.193Z,1.90
2023-03-31T17:34:05.133Z,1.92
2023-03-31T17:36:35.053Z,1.65
2023-03-31T17:39:05.139Z,3.08
2023-03-31T17:41:35.049Z,1.23
2023-03-31T17:44:08.854Z,1.80
2023-03-31T17:46:38.934Z,2.28
2023-03-31T17:49:08.844Z,2.15
2023-03-31T17:51:38.712Z,2.63
2023-03-31T17:54:08.906Z,1.95
2023-03-31T17:56:38.779Z,2.97
2023-03-31T17:59:11.421Z,3.28
2023-03-31T18:01:41.664Z,3.95
2023-03-31T18:04:11.860Z,4.18
2023-03-31T18:06:41.934Z,4.53
2023-03-31T18:09:11.858Z,1.27
2023-03-31T18:11:41.791Z,1.63
2023-03-31T18:14:14.576Z,2.20
2023-03-31T18:16:44.483Z,1.95
2023-03-31T18:19:14.353Z,3.42
2023-03-31T18:21:44.255Z,2.25
2023-03-31T18:24:14.140Z,2.15
2023-03-31T18:26:43.984Z,3.33
2023-03-31T18:29:16.554Z,2.72
2023-03-31T18:31:46.622Z,8.02
2023-03-31T18:34:16.762Z,3.47
2023-03-31T18:36:46.738Z,1.50
2023-03-31T18:39:16.805Z,3.15
2023-03-31T18:41:50.365Z,3.60
2023-03-31T18:44:22.789Z,3.30
2023-03-31T18:46:52.750Z,4.53
2023-03-31T18:49:22.903Z,1.98
2023-03-31T18:51:53.807Z,1.95
2023-03-31T18:54:23.678Z,1.73
2023-03-31T18:56:53.550Z,1.73
2023-03-31T18:59:26.025Z,1.65
2023-03-31T19:01:56.268Z,4.93
2023-03-31T19:04:27.136Z,2.67
2023-03-31T19:06:57.102Z,3.45
2023-03-31T19:09:28.084Z,4.90
2023-03-31T19:11:58.384Z,3.63
2023-03-31T19:14:30.944Z,4.22
2023-03-31T19:17:00.863Z,1.23
2023-03-31T19:19:31.031Z,2.92
2023-03-31T19:22:01.340Z,4.10
2023-03-31T19:24:31.410Z,2.92
2023-03-31T19:27:01.362Z,2.88
2023-03-31T19:29:35.378Z,4.65
2023-03-31T19:32:06.287Z,5.07
2023-03-31T19:34:36.553Z,4.10
2023-03-31T19:37:06.777Z,2.10
2023-03-31T19:39:37.624Z,2.05
2023-03-31T19:42:07.663Z,2.30
2023-03-31T19:44:40.616Z,6.20
2023-03-31T19:47:11.316Z,4.47
2023-03-31T19:49:41.810Z,5.47
2023-03-31T19:52:11.695Z,3.30
2023-03-31T19:54:42.291Z,4.53
2023-03-31T19:57:12.271Z,5.57
2023-03-31T19:59:44.945Z,2.05
2023-03-31T20:02:16.032Z,3.78
2023-03-31T20:04:46.411Z,1.83
2023-03-31T20:07:16.484Z,6.53
2023-03-31T20:09:46.553Z,4.55
2023-03-31T20:12:16.771Z,8.48
2023-03-31T20:14:49.366Z,4.05
2023-03-31T20:17:19.529Z,3.00
2023-03-31T20:19:49.861Z,2.30
2023-03-31T20:22:19.684Z,7.75
2023-03-31T20:24:49.638Z,4.72
2023-03-31T20:27:20.153Z,4.15
2023-03-31T20:29:52.556Z,4.03
2023-03-31T20:32:22.403Z,2.85
2023-03-31T20:34:52.874Z,4.18
2023-03-31T20:37:22.797Z,3.95
2023-03-31T20:39:54.150Z,4.28
2023-03-31T20:42:24.571Z,6.38
2023-03-31T20:44:57.026Z,4.43
2023-03-31T20:47:28.316Z,4.50
2023-03-31T20:49:58.179Z,6.20
2023-03-31T20:52:28.134Z,3.05
2023-03-31T20:54:58.017Z,4.13
2023-03-31T20:57:27.909Z,3.55
2023-03-31T21:00:02.143Z,2.92
2023-03-31T21:02:32.265Z,3.95
2023-03-31T21:05:02.236Z,4.82
2023-03-31T21:07:32.629Z,3.83
2023-03-31T21:10:02.746Z,3.80
2023-03-31T21:12:33.128Z,5.93
2023-03-31T21:15:05.769Z,3.22
2023-03-31T21:17:35.856Z,3.70
2023-03-31T21:20:06.317Z,2.55
2023-03-31T21:22:36.216Z,5.22
2023-03-31T21:25:06.182Z,3.97
2023-03-31T21:27:36.185Z,5.25
2023-03-31T21:30:10.473Z,5.03
2023-03-31T21:32:40.391Z,4.05
2023-03-31T21:35:11.286Z,3.75
2023-03-31T21:37:41.213Z,3.17
2023-03-31T21:40:14.440Z,5.55
2023-03-31T21:42:44.417Z,5.43
2023-03-31T21:45:17.310Z,2.50
2023-03-31T21:47:47.289Z,2.75
2023-03-31T21:50:17.398Z,4.38
2023-03-31T21:52:47.501Z,4.00
2023-03-31T21:55:17.505Z,3.08
2023-03-31T21:57:47.332Z,5.13
2023-03-31T22:00:20.293Z,2.35
2023-03-31T22:02:50.169Z,4.55
2023-03-31T22:05:20.317Z,3.63
2023-03-31T22:07:50.790Z,3.70
2023-03-31T22:10:21.027Z,2.53
2023-03-31T22:12:50.966Z,2.97
2023-03-31T22:15:23.427Z,5.55
2023-03-31T22:17:53.438Z,4.57
2023-03-31T22:20:23.449Z,4.43
2023-03-31T22:22:53.327Z,3.80
2023-03-31T22:25:23.194Z,2.78
2023-03-31T22:27:53.069Z,2.95
2023-03-31T22:30:26.056Z,1.48
2023-03-31T22:32:56.217Z,3.03
2023-03-31T22:35:26.667Z,2.63
2023-03-31T22:37:56.611Z,3.45
2023-03-31T22:40:29.242Z,1.75
2023-03-31T22:43:01.056Z,1.85
2023-03-31T22:45:33.756Z,2.72
2023-03-31T22:48:03.903Z,2.53
2023-03-31T22:50:33.890Z,0.60
2023-03-31T22:53:03.831Z,1.67
2023-03-31T22:55:33.980Z,1.23
2023-03-31T22:58:04.051Z,6.30
2023-03-31T23:00:36.538Z,2.30
2023-03-31T23:03:06.757Z,2.50
2023-03-31T23:05:37.789Z,2.05
2023-03-31T23:08:07.884Z,2.15
2023-03-31T23:10:37.749Z,1.48
2023-03-31T23:13:07.663Z,2.75
2023-03-31T23:15:41.142Z,2.88
2023-03-31T23:18:11.066Z,2.80
2023-03-31T23:20:42.520Z,1.90
2023-03-31T23:23:12.392Z,1.85
2023-03-31T23:25:42.287Z,3.08
2023-03-31T23:28:12.122Z,1.00
2023-03-31T23:30:44.506Z,2.63
2023-03-31T23:33:14.352Z,0.77
2023-03-31T23:35:44.337Z,4.43
2023-03-31T23:38:14.305Z,1.77
2023-03-31T23:40:46.366Z,3.00
2023-03-31T23:43:17.022Z,1.85
2023-03-31T23:45:49.530Z,1.85
2023-03-31T23:48:19.401Z,1.88
2023-03-31T23:50:49.249Z,1.27
2023-03-31T23:53:19.271Z,1.83
2023-03-31T23:55:56.645Z,0.80
2023-03-31T23:58:27.219Z,2.92
